Time;durP1;ratioP1;P1;durP2;ratioP2;P2;SDS_P1;SDS_P2;PMS_P1;PMS_P2;Temp;Humidity;BMP_temperature;BMP_pressure;BME280_temperature;BME280_humidity;BME280_pressure;Samples;Min_cycle;Max_cycle;Signal;HPM_P1;HPM_P2
2021/07/06 00:02:26;;;;;;;4.20;3.80;;;;;;;;;;4949762;28;20046;-83
2021/07/06 00:05:01;;;;;;;5.07;4.00;;;;;;;;;;4932774;28;20118;-83
2021/07/06 00:07:28;;;;;;;4.90;3.72;;;;;;;;;;4925252;28;20090;-83
2021/07/06 00:09:58;;;;;;;5.90;4.13;;;;;;;;;;4950634;28;20574;-82
2021/07/06 00:12:28;;;;;;;4.03;3.28;;;;;;;;;;4925701;28;20075;-82
2021/07/06 00:14:57;;;;;;;4.40;3.45;;;;;;;;;;4944381;28;20063;-83
2021/07/06 00:17:23;;;;;;;4.30;3.40;;;;;;;;;;4941949;28;22744;-83
2021/07/06 00:19:50;;;;;;;3.75;3.22;;;;;;;;;;4957231;28;20461;-78
2021/07/06 00:22:17;;;;;;;4.20;3.78;;;;;;;;;;4942442;28;20055;-78
2021/07/06 00:24:47;;;;;;;3.95;2.88;;;;;;;;;;4935830;28;20113;-78
2021/07/06 00:27:16;;;;;;;4.80;3.50;;;;;;;;;;4956936;28;20105;-77
2021/07/06 00:29:45;;;;;;;5.55;3.15;;;;;;;;;;4952128;28;20078;-78
2021/07/06 00:32:12;;;;;;;4.47;2.65;;;;;;;;;;4933080;28;20062;-78
2021/07/06 00:34:38;;;;;;;4.00;2.70;;;;;;;;;;4946328;28;20040;-79
2021/07/06 00:37:05;;;;;;;5.50;3.10;;;;;;;;;;4945926;28;20587;-79
2021/07/06 00:39:32;;;;;;;4.13;2.78;;;;;;;;;;4944599;28;20196;-80
2021/07/06 00:42:19;;;;;;;3.13;2.63;;;;;;;;;;4950517;28;20515;-80
2021/07/06 00:44:49;;;;;;;7.82;2.75;;;;;;;;;;4943671;28;22130;-80
2021/07/06 00:47:15;;;;;;;3.03;2.60;;;;;;;;;;4945967;28;20067;-79
2021/07/06 00:49:42;;;;;;;4.88;2.90;;;;;;;;;;4945782;28;20056;-81
2021/07/06 00:52:11;;;;;;;4.25;3.17;;;;;;;;;;4948793;28;20121;-80
2021/07/06 00:54:40;;;;;;;11.80;2.90;;;;;;;;;;4947774;28;20067;-80
2021/07/06 00:57:10;;;;;;;5.78;2.60;;;;;;;;;;4950677;28;20142;-80
2021/07/06 00:59:39;;;;;;;4.32;2.63;;;;;;;;;;4945257;28;20495;-80
2021/07/06 01:02:06;;;;;;;3.97;2.50;;;;;;;;;;4940303;28;20082;-80
2021/07/06 01:04:32;;;;;;;5.28;2.20;;;;;;;;;;4942688;28;20045;-80
2021/07/06 01:06:59;;;;;;;5.50;2.60;;;;;;;;;;4943016;28;20110;-81
2021/07/06 01:09:25;;;;;;;4.47;2.58;;;;;;;;;;4942932;28;20059;-81
2021/07/06 01:11:52;;;;;;;3.83;2.63;;;;;;;;;;4950503;28;20067;-82
2021/07/06 01:14:19;;;;;;;4.20;2.58;;;;;;;;;;4948870;28;20063;-80
2021/07/06 01:16:46;;;;;;;5.80;2.53;;;;;;;;;;4958965;28;20146;-81
2021/07/06 01:19:14;;;;;;;4.80;2.60;;;;;;;;;;4939230;28;20070;-79
2021/07/06 01:21:43;;;;;;;5.17;2.50;;;;;;;;;;4954325;28;20039;-81
2021/07/06 01:24:09;;;;;;;4.20;2.42;;;;;;;;;;4942984;28;20524;-80
2021/07/06 01:26:38;;;;;;;3.35;2.40;;;;;;;;;;4942355;28;20467;-81
2021/07/06 01:29:08;;;;;;;3.35;2.10;;;;;;;;;;4946779;28;20094;-78
2021/07/06 01:31:37;;;;;;;3.67;2.22;;;;;;;;;;4942342;28;20067;-81
2021/07/06 01:34:04;;;;;;;2.72;2.00;;;;;;;;;;4948536;28;20070;-78
2021/07/06 01:36:33;;;;;;;3.70;2.13;;;;;;;;;;4927449;28;20031;-82
2021/07/06 01:38:59;;;;;;;4.38;2.20;;;;;;;;;;4945506;28;20475;-81
2021/07/06 01:41:29;;;;;;;6.40;2.10;;;;;;;;;;4940522;28;20094;-81
2021/07/06 01:43:58;;;;;;;3.40;2.00;;;;;;;;;;4949148;28;20126;-83
2021/07/06 01:46:27;;;;;;;2.45;2.03;;;;;;;;;;4943834;28;20070;-81
2021/07/06 01:48:54;;;;;;;3.05;1.65;;;;;;;;;;4945337;28;20061;-81
2021/07/06 01:51:20;;;;;;;7.07;1.90;;;;;;;;;;4938674;28;20047;-81
2021/07/06 01:53:46;;;;;;;2.72;1.90;;;;;;;;;;4947435;28;20094;-81
2021/07/06 01:56:13;;;;;;;3.80;2.00;;;;;;;;;;4945103;28;20129;-82
2021/07/06 01:58:39;;;;;;;3.20;1.90;;;;;;;;;;4945765;28;20059;-82
2021/07/06 02:01:08;;;;;;;5.95;2.20;;;;;;;;;;4939361;28;20066;-81
2021/07/06 02:03:38;;;;;;;4.13;1.90;;;;;;;;;;4942131;28;20047;-81
2021/07/06 02:06:07;;;;;;;4.45;1.90;;;;;;;;;;4944641;28;20036;-81
2021/07/06 02:08:34;;;;;;;20.00;2.47;;;;;;;;;;4943657;28;20546;-79
2021/07/06 02:11:04;;;;;;;3.78;1.52;;;;;;;;;;4940791;28;20083;-79
2021/07/06 02:13:30;;;;;;;3.45;2.00;;;;;;;;;;4930677;28;20067;-79
2021/07/06 02:16:00;;;;;;;5.30;2.15;;;;;;;;;;4943576;28;20047;-81
2021/07/06 02:18:30;;;;;;;2.97;1.77;;;;;;;;;;4943754;28;20058;-81
2021/07/06 02:20:58;;;;;;;4.47;1.60;;;;;;;;;;4940739;28;20054;-80
2021/07/06 02:23:28;;;;;;;2.63;2.00;;;;;;;;;;4942539;28;20055;-78
2021/07/06 02:25:58;;;;;;;3.90;2.20;;;;;;;;;;4939362;28;20611;-79
2021/07/06 02:28:24;;;;;;;2.95;1.50;;;;;;;;;;4938782;28;20125;-79
2021/07/06 02:30:53;;;;;;;2.25;1.63;;;;;;;;;;4932270;28;20043;-78
2021/07/06 02:33:20;;;;;;;1.90;1.60;;;;;;;;;;4942295;28;20122;-78
2021/07/06 02:35:50;;;;;;;3.30;1.60;;;;;;;;;;4935922;28;20141;-80
2021/07/06 02:38:19;;;;;;;3.50;1.60;;;;;;;;;;4939394;28;20062;-80
2021/07/06 02:40:46;;;;;;;2.55;1.60;;;;;;;;;;4937367;28;20110;-79
2021/07/06 02:43:12;;;;;;;2.35;1.67;;;;;;;;;;4935775;28;20038;-79
2021/07/06 02:45:39;;;;;;;2.72;1.83;;;;;;;;;;4934382;28;20158;-80
2021/07/06 02:48:05;;;;;;;2.50;1.60;;;;;;;;;;4943305;28;20071;-79
2021/07/06 02:50:36;;;;;;;3.17;1.98;;;;;;;;;;4950982;28;20063;-81
2021/07/06 02:53:03;;;;;;;3.40;1.75;;;;;;;;;;4948342;28;20075;-80
2021/07/06 02:55:29;;;;;;;2.20;1.60;;;;;;;;;;4947729;28;20110;-82
2021/07/06 02:57:59;;;;;;;2.80;1.73;;;;;;;;;;4946609;28;20069;-81
2021/07/06 03:00:26;;;;;;;3.38;1.90;;;;;;;;;;4951207;28;20448;-80
2021/07/06 03:02:56;;;;;;;1.90;1.45;;;;;;;;;;4952926;28;20023;-80
2021/07/06 03:05:26;;;;;;;2.25;1.70;;;;;;;;;;4950550;28;20048;-79
2021/07/06 03:07:56;;;;;;;2.35;1.70;;;;;;;;;;4947022;28;20042;-78
2021/07/06 03:10:26;;;;;;;2.92;2.00;;;;;;;;;;4948063;28;20081;-79
2021/07/06 03:12:56;;;;;;;2.63;1.83;;;;;;;;;;4948602;28;20116;-79
2021/07/06 03:15:29;;;;;;;2.55;1.80;;;;;;;;;;4955564;28;20027;-79
2021/07/06 03:17:59;;;;;;;3.45;1.80;;;;;;;;;;4944802;28;20032;-79
2021/07/06 03:20:29;;;;;;;3.13;1.60;;;;;;;;;;4948149;28;20046;-79
2021/07/06 03:22:55;;;;;;;4.10;1.90;;;;;;;;;;4949583;28;20743;-80
2021/07/06 03:25:23;;;;;;;2.80;1.75;;;;;;;;;;4949252;28;20035;-79
2021/07/06 03:27:49;;;;;;;3.40;1.92;;;;;;;;;;4943986;28;20130;-78
2021/07/06 03:30:17;;;;;;;2.70;1.80;;;;;;;;;;4946368;28;20032;-79
2021/07/06 03:32:48;;;;;;;3.63;1.90;;;;;;;;;;4951259;28;20058;-81
2021/07/06 03:35:15;;;;;;;3.45;1.80;;;;;;;;;;4964604;28;20040;-79
2021/07/06 03:37:45;;;;;;;2.67;1.83;;;;;;;;;;4951394;28;20042;-80
2021/07/06 03:40:12;;;;;;;1.98;1.70;;;;;;;;;;4945208;28;20200;-80
2021/07/06 03:42:39;;;;;;;3.28;1.58;;;;;;;;;;4945163;28;20051;-78
2021/07/06 03:45:07;;;;;;;2.15;1.50;;;;;;;;;;4948228;28;20118;-79
2021/07/06 03:47:36;;;;;;;3.08;1.70;;;;;;;;;;4943452;28;20091;-79
2021/07/06 03:50:09;;;;;;;2.90;1.98;;;;;;;;;;4956393;28;20028;-78
2021/07/06 03:52:39;;;;;;;3.40;1.70;;;;;;;;;;4942350;28;20051;-79
2021/07/06 03:55:09;;;;;;;2.45;1.92;;;;;;;;;;4961808;28;20055;-78
2021/07/06 03:57:38;;;;;;;2.55;1.98;;;;;;;;;;4943333;28;20058;-78
2021/07/06 04:00:09;;;;;;;2.17;1.40;;;;;;;;;;4948899;28;20077;-78
2021/07/06 04:02:37;;;;;;;2.08;1.65;;;;;;;;;;4949509;28;20064;-79
2021/07/06 04:05:08;;;;;;;2.85;1.80;;;;;;;;;;4948583;28;20047;-79
2021/07/06 04:07:37;;;;;;;2.25;1.52;;;;;;;;;;4941265;28;20639;-78
2021/07/06 04:10:07;;;;;;;3.65;1.77;;;;;;;;;;4932702;28;20153;-78
2021/07/06 04:12:34;;;;;;;2.10;1.63;;;;;;;;;;4935915;28;20086;-79
2021/07/06 04:15:00;;;;;;;2.10;1.70;;;;;;;;;;4946604;28;20124;-82
2021/07/06 04:17:27;;;;;;;2.95;1.70;;;;;;;;;;4945806;28;20504;-79
2021/07/06 04:19:56;;;;;;;3.65;1.50;;;;;;;;;;4962361;28;20074;-78
2021/07/06 04:22:26;;;;;;;2.47;1.42;;;;;;;;;;4946148;28;20054;-80
2021/07/06 04:24:55;;;;;;;2.45;1.50;;;;;;;;;;4941806;28;20035;-79
2021/07/06 04:27:22;;;;;;;2.05;1.30;;;;;;;;;;4943788;28;20055;-79
2021/07/06 04:29:52;;;;;;;2.13;1.50;;;;;;;;;;4962590;28;20039;-79
2021/07/06 04:32:21;;;;;;;1.88;1.40;;;;;;;;;;4930418;28;20126;-79
2021/07/06 04:34:49;;;;;;;2.03;1.40;;;;;;;;;;4948534;28;20075;-80
2021/07/06 04:37:15;;;;;;;4.22;2.08;;;;;;;;;;4936992;28;20055;-80
2021/07/06 04:39:42;;;;;;;4.13;2.05;;;;;;;;;;4946032;28;20094;-79
2021/07/06 04:42:13;;;;;;;2.95;2.00;;;;;;;;;;4934117;28;20149;-80
2021/07/06 04:44:45;;;;;;;3.00;1.92;;;;;;;;;;4962192;28;20027;-80
2021/07/06 04:47:11;;;;;;;2.78;1.80;;;;;;;;;;4940195;28;20089;-81
2021/07/06 04:49:38;;;;;;;3.95;2.13;;;;;;;;;;4956457;28;20035;-82
2021/07/06 04:52:10;;;;;;;2.80;1.60;;;;;;;;;;4948167;28;20055;-84
2021/07/06 04:54:36;;;;;;;4.10;1.88;;;;;;;;;;4938831;28;21267;-84
2021/07/06 04:57:07;;;;;;;5.88;1.95;;;;;;;;;;4958613;28;20043;-83
2021/07/06 04:59:36;;;;;;;7.72;2.00;;;;;;;;;;4950140;28;22219;-79
2021/07/06 05:02:06;;;;;;;3.25;1.73;;;;;;;;;;4943241;28;20086;-82
2021/07/06 05:04:36;;;;;;;3.27;1.73;;;;;;;;;;4945920;28;22785;-83
2021/07/06 05:07:06;;;;;;;3.58;1.90;;;;;;;;;;4946933;28;20465;-83
2021/07/06 05:09:35;;;;;;;4.05;1.90;;;;;;;;;;4956388;28;22275;-84
2021/07/06 05:12:02;;;;;;;4.47;1.95;;;;;;;;;;4948803;28;20074;-83
2021/07/06 05:14:31;;;;;;;3.35;1.67;;;;;;;;;;4942001;28;20039;-83
2021/07/06 05:16:58;;;;;;;3.50;1.70;;;;;;;;;;4955949;28;20097;-83
2021/07/06 05:19:27;;;;;;;4.78;1.70;;;;;;;;;;4937206;28;20091;-83
2021/07/06 05:21:56;;;;;;;4.10;2.08;;;;;;;;;;4952231;28;20121;-84
2021/07/06 05:24:25;;;;;;;3.35;1.85;;;;;;;;;;4947843;28;20066;-84
2021/07/06 05:26:52;;;;;;;5.28;2.00;;;;;;;;;;4950230;28;20077;-84
2021/07/06 05:29:21;;;;;;;3.75;1.90;;;;;;;;;;4948526;28;20034;-82
2021/07/06 05:31:53;;;;;;;4.90;2.00;;;;;;;;;;4938609;28;20090;-81
2021/07/06 05:34:22;;;;;;;5.35;2.00;;;;;;;;;;4947300;28;20035;-81
2021/07/06 05:36:55;;;;;;;5.68;2.00;;;;;;;;;;4952561;28;20099;-83
2021/07/06 05:39:24;;;;;;;5.03;1.70;;;;;;;;;;4943650;28;20131;-78
2021/07/06 05:42:00;;;;;;;3.00;1.50;;;;;;;;;;4949727;28;20063;-79
2021/07/06 05:44:26;;;;;;;4.38;1.67;;;;;;;;;;4937698;28;20063;-79
2021/07/06 05:46:52;;;;;;;3.78;1.73;;;;;;;;;;4939345;28;20097;-78
2021/07/06 05:49:22;;;;;;;6.18;1.80;;;;;;;;;;4939729;28;20087;-78
2021/07/06 05:51:50;;;;;;;4.22;1.58;;;;;;;;;;4944725;28;20106;-78
2021/07/06 05:54:16;;;;;;;3.63;1.80;;;;;;;;;;4965479;28;20046;-79
2021/07/06 05:56:43;;;;;;;3.53;2.00;;;;;;;;;;4950609;28;20055;-79
2021/07/06 05:59:12;;;;;;;5.13;1.88;;;;;;;;;;4945388;28;20055;-82
2021/07/06 06:01:38;;;;;;;3.80;1.90;;;;;;;;;;4949406;28;20504;-80
2021/07/06 06:04:04;;;;;;;5.88;1.90;;;;;;;;;;4949345;28;20055;-79
2021/07/06 06:06:33;;;;;;;4.00;1.70;;;;;;;;;;4945654;28;20078;-80
2021/07/06 06:09:02;;;;;;;2.85;1.60;;;;;;;;;;4943746;28;20110;-75
2021/07/06 06:11:28;;;;;;;3.72;1.75;;;;;;;;;;4934842;28;20060;-76
2021/07/06 06:13:55;;;;;;;4.57;1.48;;;;;;;;;;4943483;28;20099;-78
2021/07/06 06:16:22;;;;;;;5.10;1.95;;;;;;;;;;4948404;28;20465;-78
2021/07/06 06:18:54;;;;;;;4.88;1.92;;;;;;;;;;4946658;28;20063;-79
2021/07/06 06:21:27;;;;;;;3.17;1.50;;;;;;;;;;4943275;28;20055;-78
2021/07/06 06:23:56;;;;;;;3.40;1.40;;;;;;;;;;4935092;28;20058;-79
2021/07/06 06:26:25;;;;;;;1.95;1.40;;;;;;;;;;4952276;28;20051;-78
2021/07/06 06:28:52;;;;;;;5.43;1.73;;;;;;;;;;4951317;28;20062;-78
2021/07/06 06:31:18;;;;;;;3.42;1.60;;;;;;;;;;4934896;28;20053;-79
2021/07/06 06:33:45;;;;;;;3.22;1.73;;;;;;;;;;4943361;28;20062;-79
2021/07/06 06:36:14;;;;;;;4.07;1.60;;;;;;;;;;4945297;28;20063;-79
2021/07/06 06:38:41;;;;;;;3.05;1.65;;;;;;;;;;4948598;28;20039;-79
2021/07/06 06:41:07;;;;;;;5.10;1.92;;;;;;;;;;4948965;28;20063;-79
2021/07/06 06:43:36;;;;;;;3.90;1.63;;;;;;;;;;4945751;28;20130;-84
2021/07/06 06:46:04;;;;;;;4.20;1.90;;;;;;;;;;4949025;28;20058;-86
2021/07/06 06:48:31;;;;;;;3.00;2.05;;;;;;;;;;4934075;28;20584;-85
2021/07/06 06:50:57;;;;;;;4.47;1.85;;;;;;;;;;4932738;28;20055;-86
2021/07/06 06:53:24;;;;;;;2.83;1.98;;;;;;;;;;4947201;28;20461;-83
2021/07/06 06:55:53;;;;;;;5.93;1.80;;;;;;;;;;4946406;28;20535;-81
2021/07/06 06:58:22;;;;;;;3.97;3.28;;;;;;;;;;4949887;28;20032;-80
2021/07/06 07:00:52;;;;;;;3.92;1.70;;;;;;;;;;4947404;28;20058;-80
2021/07/06 07:03:18;;;;;;;3.60;1.70;;;;;;;;;;4945815;28;20692;-83
2021/07/06 07:05:47;;;;;;;2.45;1.95;;;;;;;;;;4941657;28;20456;-80
2021/07/06 07:08:14;;;;;;;3.90;1.98;;;;;;;;;;4939696;28;20071;-80
2021/07/06 07:10:42;;;;;;;3.13;1.60;;;;;;;;;;4946692;28;20098;-80
2021/07/06 07:13:08;;;;;;;5.32;2.13;;;;;;;;;;4940344;28;20555;-82
2021/07/06 07:15:38;;;;;;;4.10;1.70;;;;;;;;;;4941947;28;20043;-81
2021/07/06 07:18:04;;;;;;;2.97;1.40;;;;;;;;;;4946537;28;20495;-81
2021/07/06 07:20:31;;;;;;;5.18;1.88;;;;;;;;;;4941066;28;20130;-81
2021/07/06 07:23:01;;;;;;;2.70;1.45;;;;;;;;;;4949144;28;20051;-81
2021/07/06 07:25:32;;;;;;;2.25;1.73;;;;;;;;;;4946223;28;20573;-82
2021/07/06 07:27:59;;;;;;;6.10;1.70;;;;;;;;;;4947095;28;20540;-80
2021/07/06 07:30:25;;;;;;;4.85;2.00;;;;;;;;;;4964981;28;20244;-81
2021/07/06 07:32:52;;;;;;;3.83;2.10;;;;;;;;;;4947504;28;20507;-81
2021/07/06 07:35:20;;;;;;;3.17;1.75;;;;;;;;;;4948602;28;20506;-81
2021/07/06 07:37:49;;;;;;;3.83;1.67;;;;;;;;;;4943195;28;20054;-81
2021/07/06 07:40:19;;;;;;;2.33;1.48;;;;;;;;;;4959364;28;20086;-81
2021/07/06 07:42:45;;;;;;;4.18;1.90;;;;;;;;;;4951842;28;20063;-81
2021/07/06 07:45:12;;;;;;;3.55;2.10;;;;;;;;;;4946485;28;20027;-80
2021/07/06 07:47:38;;;;;;;3.78;2.03;;;;;;;;;;4948780;28;20106;-81
2021/07/06 07:50:05;;;;;;;7.47;2.47;;;;;;;;;;4949606;28;20063;-83
2021/07/06 07:52:35;;;;;;;3.65;2.08;;;;;;;;;;4950204;28;20078;-80
2021/07/06 07:55:05;;;;;;;5.60;2.80;;;;;;;;;;4945383;28;20054;-80
2021/07/06 07:57:35;;;;;;;3.75;2.20;;;;;;;;;;4943281;28;20031;-80
2021/07/06 08:00:01;;;;;;;4.25;1.83;;;;;;;;;;4959162;28;20043;-78
2021/07/06 08:02:31;;;;;;;3.85;2.08;;;;;;;;;;4946516;28;20488;-81
2021/07/06 08:04:59;;;;;;;2.40;1.90;;;;;;;;;;4949268;28;20032;-79
2021/07/06 08:07:30;;;;;;;3.75;2.00;;;;;;;;;;4944741;28;20114;-80
2021/07/06 08:10:00;;;;;;;3.27;2.07;;;;;;;;;;4940076;28;20063;-79
2021/07/06 08:12:29;;;;;;;5.53;2.30;;;;;;;;;;4947124;28;20143;-81
2021/07/06 08:14:58;;;;;;;3.53;1.95;;;;;;;;;;4943815;28;20058;-77
2021/07/06 08:17:24;;;;;;;3.80;1.83;;;;;;;;;;4943083;28;20059;-76
2021/07/06 08:19:52;;;;;;;3.78;2.03;;;;;;;;;;4943917;28;20108;-76
2021/07/06 08:22:18;;;;;;;3.85;2.20;;;;;;;;;;4937673;28;20070;-77
2021/07/06 08:24:45;;;;;;;5.28;1.90;;;;;;;;;;4944241;28;20074;-75
2021/07/06 08:27:12;;;;;;;3.35;2.08;;;;;;;;;;4944310;28;20118;-76
2021/07/06 08:29:39;;;;;;;3.45;2.13;;;;;;;;;;4942103;28;20493;-76
2021/07/06 08:32:05;;;;;;;2.95;1.95;;;;;;;;;;4945703;28;20114;-78
2021/07/06 08:34:32;;;;;;;2.35;1.80;;;;;;;;;;4946380;28;22293;-81
2021/07/06 08:36:58;;;;;;;3.17;2.17;;;;;;;;;;4939599;28;20063;-78
2021/07/06 08:39:24;;;;;;;5.78;2.13;;;;;;;;;;4939949;28;20055;-79
2021/07/06 08:41:51;;;;;;;2.85;2.10;;;;;;;;;;4944303;28;20082;-79
2021/07/06 08:44:20;;;;;;;4.78;2.00;;;;;;;;;;4947115;28;20118;-81
2021/07/06 08:46:47;;;;;;;5.47;2.40;;;;;;;;;;4943606;28;20138;-79
2021/07/06 08:49:13;;;;;;;4.05;2.30;;;;;;;;;;4944159;28;20059;-78
2021/07/06 08:51:42;;;;;;;4.85;2.30;;;;;;;;;;4946389;28;20059;-79
2021/07/06 08:54:09;;;;;;;6.07;2.40;;;;;;;;;;4944080;28;20665;-81
2021/07/06 08:56:35;;;;;;;7.78;2.70;;;;;;;;;;4948453;28;20066;-80
2021/07/06 08:59:02;;;;;;;3.70;2.30;;;;;;;;;;4946998;28;20058;-82
2021/07/06 09:01:28;;;;;;;3.53;2.22;;;;;;;;;;4947383;28;20066;-81
2021/07/06 09:03:57;;;;;;;6.03;1.98;;;;;;;;;;4949250;28;20055;-82
2021/07/06 09:06:27;;;;;;;6.55;2.30;;;;;;;;;;4948430;28;20063;-80
2021/07/06 09:09:12;;;;;;;2.20;1.95;;;;;;;;;;4951862;28;20051;-80
2021/07/06 09:11:46;;;;;;;3.97;2.35;;;;;;;;;;4941220;28;20883;-80
2021/07/06 09:14:12;;;;;;;4.50;2.40;;;;;;;;;;4944842;28;20059;-80
2021/07/06 09:16:39;;;;;;;4.45;2.20;;;;;;;;;;4958735;28;20091;-81
2021/07/06 09:19:24;;;;;;;5.45;2.30;;;;;;;;;;4953048;28;20115;-80
2021/07/06 09:22:09;;;;;;;4.18;1.98;;;;;;;;;;4941104;28;21219;-81
2021/07/06 09:24:35;;;;;;;4.53;2.22;;;;;;;;;;4936843;28;21537;-80
2021/07/06 09:27:20;;;;;;;3.20;2.20;;;;;;;;;;4958712;28;20530;-80
2021/07/06 09:30:06;;;;;;;3.05;2.20;;;;;;;;;;4941450;28;21068;-81
2021/07/06 09:32:35;;;;;;;3.80;2.10;;;;;;;;;;4941078;28;22497;-81
2021/07/06 09:35:28;;;;;;;6.32;2.30;;;;;;;;;;4938470;28;20086;-77
2021/07/06 09:37:56;;;;;;;4.47;2.40;;;;;;;;;;4936029;28;21136;-81
2021/07/06 09:40:31;;;;;;;4.32;2.47;;;;;;;;;;4940757;28;20111;-81
2021/07/06 09:43:16;;;;;;;7.60;2.58;;;;;;;;;;4944798;28;20118;-81
2021/07/06 09:45:43;;;;;;;4.05;2.20;;;;;;;;;;4947417;28;20435;-76
2021/07/06 09:48:10;;;;;;;7.15;2.42;;;;;;;;;;4945238;28;20531;-80
2021/07/06 09:50:37;;;;;;;5.13;2.17;;;;;;;;;;4944539;28;20074;-79
2021/07/06 09:53:03;;;;;;;4.90;2.03;;;;;;;;;;4941545;28;20067;-80
2021/07/06 09:55:33;;;;;;;3.88;2.15;;;;;;;;;;4948309;28;20051;-80
2021/07/06 09:58:04;;;;;;;5.28;2.17;;;;;;;;;;4947216;28;20461;-80
2021/07/06 10:00:33;;;;;;;2.95;2.05;;;;;;;;;;4945073;28;20118;-80
2021/07/06 10:03:01;;;;;;;3.40;2.35;;;;;;;;;;4948816;28;20074;-79
2021/07/06 10:05:31;;;;;;;3.20;2.40;;;;;;;;;;4945165;28;20062;-80
2021/07/06 10:07:57;;;;;;;2.88;2.50;;;;;;;;;;4943246;28;20122;-78
2021/07/06 10:10:25;;;;;;;2.85;2.38;;;;;;;;;;4948177;28;20079;-79
2021/07/06 10:12:53;;;;;;;4.57;2.60;;;;;;;;;;4948431;28;20532;-80
2021/07/06 10:15:20;;;;;;;3.22;2.33;;;;;;;;;;4945880;28;20066;-80
2021/07/06 10:17:48;;;;;;;3.70;2.25;;;;;;;;;;4949654;28;20063;-79
2021/07/06 10:20:19;;;;;;;3.92;2.55;;;;;;;;;;4941300;28;20110;-77
2021/07/06 10:22:45;;;;;;;2.85;2.30;;;;;;;;;;4941576;28;20035;-78
2021/07/06 10:25:12;;;;;;;2.55;2.15;;;;;;;;;;4947142;28;20063;-79
2021/07/06 10:27:40;;;;;;;3.42;2.40;;;;;;;;;;4950097;28;20134;-79
2021/07/06 10:30:11;;;;;;;3.88;2.50;;;;;;;;;;4941664;28;20500;-77
2021/07/06 10:32:38;;;;;;;2.70;2.28;;;;;;;;;;4944667;28;20062;-78
2021/07/06 10:35:06;;;;;;;3.63;2.85;;;;;;;;;;4948124;28;20193;-79
2021/07/06 10:37:32;;;;;;;4.15;2.67;;;;;;;;;;4946432;28;20689;-78
2021/07/06 10:40:15;;;;;;;3.72;2.80;;;;;;;;;;4940933;28;20074;-78
2021/07/06 10:42:41;;;;;;;3.10;2.25;;;;;;;;;;4941677;28;20495;-78
2021/07/06 10:45:15;;;;;;;3.30;2.05;;;;;;;;;;4947328;28;20684;-78
2021/07/06 10:47:45;;;;;;;3.00;2.55;;;;;;;;;;4946438;28;20062;-77
2021/07/06 10:50:30;;;;;;;5.25;2.72;;;;;;;;;;4948270;28;20566;-78
2021/07/06 10:53:15;;;;;;;4.20;2.53;;;;;;;;;;4946367;28;20075;-78
2021/07/06 10:55:42;;;;;;;3.28;2.08;;;;;;;;;;4946666;28;22324;-79
2021/07/06 10:58:08;;;;;;;4.05;2.50;;;;;;;;;;4945165;28;20067;-77
2021/07/06 11:00:41;;;;;;;5.03;1.75;;;;;;;;;;4941624;28;20112;-79
2021/07/06 11:03:18;;;;;;;4.28;2.58;;;;;;;;;;4943887;28;20079;-76
2021/07/06 11:05:44;;;;;;;3.33;2.03;;;;;;;;;;4945821;28;20112;-77
2021/07/06 11:08:30;;;;;;;3.45;2.72;;;;;;;;;;4947414;28;20853;-77
2021/07/06 11:10:56;;;;;;;4.55;2.80;;;;;;;;;;4952091;28;20491;-78
2021/07/06 11:13:27;;;;;;;6.78;3.08;;;;;;;;;;4944755;28;20062;-78
2021/07/06 11:15:54;;;;;;;9.52;3.17;;;;;;;;;;4948818;28;20058;-79
2021/07/06 11:18:32;;;;;;;4.78;2.13;;;;;;;;;;4947838;28;20059;-77
2021/07/06 11:20:59;;;;;;;6.68;2.60;;;;;;;;;;4945319;28;20063;-74
2021/07/06 11:23:32;;;;;;;7.95;2.20;;;;;;;;;;4949470;28;20523;-76
2021/07/06 11:26:03;;;;;;;3.60;2.00;;;;;;;;;;4944295;28;20067;-78
2021/07/06 11:28:29;;;;;;;5.78;2.63;;;;;;;;;;4936283;28;20225;-77
2021/07/06 11:30:57;;;;;;;3.40;2.28;;;;;;;;;;4941080;28;20059;-80
2021/07/06 11:33:33;;;;;;;6.55;2.42;;;;;;;;;;4936971;28;20136;-78
2021/07/06 11:36:00;;;;;;;3.83;2.20;;;;;;;;;;4947349;28;20126;-78
2021/07/06 11:38:28;;;;;;;2.65;2.40;;;;;;;;;;4946755;28;20071;-78
2021/07/06 11:40:56;;;;;;;5.82;2.00;;;;;;;;;;4950504;28;20054;-78
2021/07/06 11:43:23;;;;;;;4.15;2.05;;;;;;;;;;4947835;28;20063;-78
2021/07/06 11:45:51;;;;;;;3.63;1.98;;;;;;;;;;4942657;28;20069;-78
2021/07/06 11:48:18;;;;;;;5.63;2.65;;;;;;;;;;4948033;28;20046;-77
2021/07/06 11:50:45;;;;;;;5.25;2.00;;;;;;;;;;4962742;28;20028;-78
2021/07/06 11:53:12;;;;;;;2.05;1.60;;;;;;;;;;4949208;28;20141;-77
2021/07/06 11:55:40;;;;;;;4.22;2.55;;;;;;;;;;4946896;28;20527;-77
2021/07/06 11:58:08;;;;;;;4.00;1.73;;;;;;;;;;4961137;28;20177;-78
2021/07/06 12:00:35;;;;;;;2.50;2.00;;;;;;;;;;4946301;28;20059;-78
2021/07/06 12:03:17;;;;;;;3.33;2.10;;;;;;;;;;4950328;28;20046;-78
2021/07/06 12:05:44;;;;;;;2.40;1.70;;;;;;;;;;4942065;28;20039;-77
2021/07/06 12:08:19;;;;;;;2.47;2.00;;;;;;;;;;4946552;28;20055;-78
2021/07/06 12:11:04;;;;;;;3.17;2.50;;;;;;;;;;4952062;28;20063;-77
2021/07/06 12:13:32;;;;;;;3.70;1.83;;;;;;;;;;4950460;28;20078;-78
2021/07/06 12:16:02;;;;;;;4.32;2.40;;;;;;;;;;4948370;28;20063;-78
2021/07/06 12:18:29;;;;;;;2.58;2.17;;;;;;;;;;4951744;28;20118;-78
2021/07/06 12:21:01;;;;;;;5.43;2.40;;;;;;;;;;4949192;28;20063;-79
2021/07/06 12:23:27;;;;;;;3.10;2.28;;;;;;;;;;4947000;28;20062;-78
2021/07/06 12:25:55;;;;;;;5.50;2.33;;;;;;;;;;4953006;28;20121;-78
2021/07/06 12:28:22;;;;;;;3.78;2.20;;;;;;;;;;4950015;28;20052;-78
2021/07/06 12:31:07;;;;;;;3.72;2.35;;;;;;;;;;4949954;28;20055;-79
2021/07/06 12:33:33;;;;;;;3.55;1.95;;;;;;;;;;4945034;28;20284;-77
2021/07/06 12:35:59;;;;;;;4.63;2.20;;;;;;;;;;4945518;28;20063;-77
2021/07/06 12:38:27;;;;;;;3.40;1.83;;;;;;;;;;4945116;28;20047;-77
2021/07/06 12:40:54;;;;;;;2.80;2.05;;;;;;;;;;4942985;28;20641;-77
2021/07/06 12:43:24;;;;;;;2.35;1.60;;;;;;;;;;4945028;28;20511;-77
2021/07/06 12:45:51;;;;;;;2.60;1.63;;;;;;;;;;4945055;28;20054;-77
2021/07/06 12:48:27;;;;;;;3.00;2.00;;;;;;;;;;4940535;28;20097;-77
2021/07/06 12:50:54;;;;;;;3.67;2.30;;;;;;;;;;4959070;28;20511;-76
2021/07/06 12:53:23;;;;;;;3.58;1.90;;;;;;;;;;4944452;28;20071;-76
2021/07/06 12:55:50;;;;;;;2.40;1.38;;;;;;;;;;4944378;28;20063;-79
2021/07/06 12:58:16;;;;;;;3.97;1.95;;;;;;;;;;4943876;28;20103;-78
2021/07/06 13:00:43;;;;;;;3.05;1.60;;;;;;;;;;4945283;28;20077;-80
2021/07/06 13:03:17;;;;;;;2.90;1.90;;;;;;;;;;4946479;28;20437;-77
2021/07/06 13:05:47;;;;;;;5.32;2.22;;;;;;;;;;4945921;28;20086;-78
2021/07/06 13:08:27;;;;;;;3.55;1.73;;;;;;;;;;4938941;28;20476;-77
2021/07/06 13:10:55;;;;;;;4.28;2.38;;;;;;;;;;4939315;28;20051;-80
2021/07/06 13:13:25;;;;;;;2.67;1.60;;;;;;;;;;4944037;28;20060;-78
2021/07/06 13:16:12;;;;;;;3.90;2.10;;;;;;;;;;4942494;28;20071;-78
2021/07/06 13:18:43;;;;;;;3.42;2.20;;;;;;;;;;4941261;28;21366;-79
2021/07/06 13:21:10;;;;;;;3.65;2.17;;;;;;;;;;4947883;28;20064;-79
2021/07/06 13:23:37;;;;;;;2.60;2.10;;;;;;;;;;4943847;28;20580;-81
2021/07/06 13:26:04;;;;;;;2.60;1.58;;;;;;;;;;4947494;28;20062;-81
2021/07/06 13:28:30;;;;;;;2.70;2.03;;;;;;;;;;4948409;28;20048;-81
2021/07/06 13:30:57;;;;;;;3.03;1.88;;;;;;;;;;4948198;28;20063;-81
2021/07/06 13:33:24;;;;;;;2.20;1.73;;;;;;;;;;4947138;28;20554;-79
2021/07/06 13:35:51;;;;;;;2.83;1.60;;;;;;;;;;4946064;28;20036;-81
2021/07/06 13:38:19;;;;;;;2.90;2.20;;;;;;;;;;4945059;28;20055;-79
2021/07/06 13:40:46;;;;;;;2.72;2.03;;;;;;;;;;4949240;28;20507;-79
2021/07/06 13:43:12;;;;;;;3.22;2.00;;;;;;;;;;4942367;28;20082;-79
2021/07/06 13:45:39;;;;;;;2.10;1.85;;;;;;;;;;4947042;28;20075;-80
2021/07/06 13:48:06;;;;;;;3.17;1.90;;;;;;;;;;4950500;28;20066;-80
2021/07/06 13:50:32;;;;;;;2.22;1.70;;;;;;;;;;4948412;28;22308;-79
2021/07/06 13:52:59;;;;;;;3.05;1.88;;;;;;;;;;4948059;28;20604;-79
2021/07/06 13:55:30;;;;;;;2.53;1.98;;;;;;;;;;4946482;28;20058;-78
2021/07/06 13:57:57;;;;;;;2.00;1.50;;;;;;;;;;4942982;28;20074;-79
2021/07/06 14:00:24;;;;;;;2.15;1.58;;;;;;;;;;4944133;28;20059;-78
2021/07/06 14:02:50;;;;;;;7.82;2.15;;;;;;;;;;4946403;28;20074;-82
2021/07/06 14:05:17;;;;;;;2.80;1.58;;;;;;;;;;4950518;28;20457;-81
2021/07/06 14:07:44;;;;;;;2.50;1.92;;;;;;;;;;4944329;28;20067;-80
2021/07/06 14:10:11;;;;;;;3.30;2.05;;;;;;;;;;4943105;28;20488;-79
2021/07/06 14:12:38;;;;;;;3.38;2.00;;;;;;;;;;4945986;28;20055;-80
2021/07/06 14:15:06;;;;;;;5.30;2.10;;;;;;;;;;4949373;28;20058;-80
2021/07/06 14:17:33;;;;;;;4.25;1.90;;;;;;;;;;4942163;28;21390;-80
2021/07/06 14:20:01;;;;;;;2.83;1.90;;;;;;;;;;4941396;28;20050;-79
2021/07/06 14:22:27;;;;;;;2.55;1.67;;;;;;;;;;4939458;28;20093;-79
2021/07/06 14:24:54;;;;;;;3.70;2.10;;;;;;;;;;4943804;28;20559;-80
2021/07/06 14:27:20;;;;;;;2.35;1.80;;;;;;;;;;4947017;28;20586;-78
2021/07/06 14:29:47;;;;;;;3.45;1.98;;;;;;;;;;4950392;28;20071;-79
2021/07/06 14:32:14;;;;;;;4.10;1.63;;;;;;;;;;4943532;28;20059;-78
2021/07/06 14:34:41;;;;;;;3.45;2.05;;;;;;;;;;4943065;28;20051;-79
2021/07/06 14:37:07;;;;;;;4.50;1.70;;;;;;;;;;4947139;28;20083;-77
2021/07/06 14:39:34;;;;;;;6.82;2.15;;;;;;;;;;4949272;28;20651;-80
2021/07/06 14:42:04;;;;;;;4.38;2.20;;;;;;;;;;4942018;28;20082;-80
2021/07/06 14:44:32;;;;;;;3.92;2.08;;;;;;;;;;4954842;28;20512;-80
2021/07/06 14:46:58;;;;;;;3.70;1.52;;;;;;;;;;4950553;28;20055;-80
2021/07/06 14:49:24;;;;;;;2.63;2.00;;;;;;;;;;4953791;28;20071;-79
2021/07/06 14:51:51;;;;;;;2.83;2.20;;;;;;;;;;4954877;28;20098;-79
2021/07/06 14:54:17;;;;;;;2.28;1.40;;;;;;;;;;4954070;28;20062;-79